Portada
METAR-TAF:

METAR-TAF

Aeropuertos :

Paganella, Italia

latitud: 46-09N, longitud: 011-02E, altitud: 2125 m

Observación

El informe se hizo hace 1 hora y 21 minutos, a las 15:55 UTC
Viento 14 kt del sur
Temperatura -6°C
Humedad 93%
Presión 992 hPa
Visibilidad menor de 50 m

METAR: LIVP 041555Z 18014KT 0000 VV/// M06/M07 Q0992 RMK MON INVIS VAL INVIS VIS MIN 0000

Hora: 18:16 (17:16 UTC)


TAF: falta

Observaciones y pronósticos meteorológicos de más de 4000 aeropuertos (mensajes METAR y TAF).

Los puntos amarillos y rojos representan las estaciones disponibles.

Ponga el ratón en el punto deseado para ver el nombre de la estación.

Haga clic para ver las observaciones y los pronósticos meteorológicos.

Para cambiar el mapa : haga clic en los botones verdes con una cruz de color negro para hacer un zoom, en el botón verde con un guión para alejar o en las flechas verdes para mapas adyacentes.


METAR-TAF: